sensor_id;sensor_type;location;lat;lon;timestamp;pressure;altitude;pressure_sealevel;temperature;humidity
39793;BME280;26080;42.264;24.536;2023-06-24T00:02:16;99249.66;;;21.76;100.00
39793;BME280;26080;42.264;24.536;2023-06-24T00:04:41;99245.59;;;21.72;100.00
39793;BME280;26080;42.264;24.536;2023-06-24T00:07:07;99240.28;;;21.62;100.00
39793;BME280;26080;42.264;24.536;2023-06-24T00:09:32;99242.81;;;21.64;100.00
39793;BME280;26080;42.264;24.536;2023-06-24T00:11:58;99253.06;;;21.58;100.00
39793;BME280;26080;42.264;24.536;2023-06-24T00:14:27;99251.09;;;21.61;100.00
39793;BME280;26080;42.264;24.536;2023-06-24T00:16:54;99244.38;;;21.47;100.00
39793;BME280;26080;42.264;24.536;2023-06-24T00:19:21;99253.66;;;21.33;100.00
39793;BME280;26080;42.264;24.536;2023-06-24T00:21:50;99247.22;;;21.26;100.00
39793;BME280;26080;42.264;24.536;2023-06-24T00:24:18;99246.09;;;21.28;100.00
39793;BME280;26080;42.264;24.536;2023-06-24T00:26:47;99228.97;;;21.21;100.00
39793;BME280;26080;42.264;24.536;2023-06-24T00:29:13;99209.06;;;20.96;100.00
39793;BME280;26080;42.264;24.536;2023-06-24T00:31:38;99237.94;;;21.20;100.00
39793;BME280;26080;42.264;24.536;2023-06-24T00:34:04;99233.44;;;21.21;100.00
39793;BME280;26080;42.264;24.536;2023-06-24T00:36:30;99225.78;;;21.27;100.00
39793;BME280;26080;42.264;24.536;2023-06-24T00:38:57;99228.81;;;21.23;100.00
39793;BME280;26080;42.264;24.536;2023-06-24T00:41:26;99209.50;;;20.92;100.00
39793;BME280;26080;42.264;24.536;2023-06-24T00:43:51;99228.81;;;20.94;100.00
39793;BME280;26080;42.264;24.536;2023-06-24T00:46:17;99231.50;;;21.04;100.00
39793;BME280;26080;42.264;24.536;2023-06-24T00:48:45;99233.47;;;21.02;100.00
39793;BME280;26080;42.264;24.536;2023-06-24T00:51:10;99234.00;;;20.95;100.00
39793;BME280;26080;42.264;24.536;2023-06-24T00:53:36;99222.25;;;20.88;100.00
39793;BME280;26080;42.264;24.536;2023-06-24T00:56:02;99228.69;;;20.95;100.00
39793;BME280;26080;42.264;24.536;2023-06-24T00:58:31;99232.06;;;20.97;100.00
39793;BME280;26080;42.264;24.536;2023-06-24T01:00:57;99228.28;;;20.90;100.00
39793;BME280;26080;42.264;24.536;2023-06-24T01:03:26;99225.88;;;21.07;100.00
39793;BME280;26080;42.264;24.536;2023-06-24T01:05:54;99230.94;;;21.10;100.00
39793;BME280;26080;42.264;24.536;2023-06-24T01:08:19;99232.47;;;21.03;100.00
39793;BME280;26080;42.264;24.536;2023-06-24T01:10:48;99238.78;;;20.73;100.00
39793;BME280;26080;42.264;24.536;2023-06-24T01:13:15;99231.44;;;20.55;100.00
39793;BME280;26080;42.264;24.536;2023-06-24T01:15:41;99229.16;;;20.31;100.00
39793;BME280;26080;42.264;24.536;2023-06-24T01:18:13;99227.84;;;20.26;100.00
39793;BME280;26080;42.264;24.536;2023-06-24T01:20:56;99236.44;;;20.39;100.00
39793;BME280;26080;42.264;24.536;2023-06-24T01:23:39;99242.88;;;20.36;100.00
39793;BME280;26080;42.264;24.536;2023-06-24T01:31:34;99229.06;;;20.12;100.00
39793;BME280;26080;42.264;24.536;2023-06-24T01:34:31;99236.06;;;20.13;100.00
39793;BME280;26080;42.264;24.536;2023-06-24T01:39:34;99204.81;;;19.96;100.00
39793;BME280;26080;42.264;24.536;2023-06-24T01:42:07;99222.31;;;19.98;100.00
39793;BME280;26080;42.264;24.536;2023-06-24T01:44:34;99230.13;;;20.00;100.00
39793;BME280;26080;42.264;24.536;2023-06-24T01:47:01;99243.06;;;20.04;100.00
39793;BME280;26080;42.264;24.536;2023-06-24T01:49:30;99238.56;;;20.05;100.00
39793;BME280;26080;42.264;24.536;2023-06-24T01:51:59;99250.00;;;19.96;100.00
39793;BME280;26080;42.264;24.536;2023-06-24T01:54:27;99244.94;;;19.93;100.00
39793;BME280;26080;42.264;24.536;2023-06-24T01:56:56;99243.78;;;19.86;100.00
39793;BME280;26080;42.264;24.536;2023-06-24T01:59:22;99248.84;;;19.89;100.00
39793;BME280;26080;42.264;24.536;2023-06-24T02:01:50;99252.22;;;19.91;100.00
39793;BME280;26080;42.264;24.536;2023-06-24T02:04:17;99249.44;;;19.92;100.00
39793;BME280;26080;42.264;24.536;2023-06-24T02:06:44;99251.41;;;20.00;100.00
39793;BME280;26080;42.264;24.536;2023-06-24T02:09:10;99258.41;;;20.01;100.00
39793;BME280;26080;42.264;24.536;2023-06-24T02:11:36;99259.22;;;19.92;100.00
39793;BME280;26080;42.264;24.536;2023-06-24T02:14:04;99260.91;;;19.93;100.00
39793;BME280;26080;42.264;24.536;2023-06-24T02:16:32;99254.59;;;19.94;100.00
39793;BME280;26080;42.264;24.536;2023-06-24T02:19:00;99243.28;;;19.92;100.00
39793;BME280;26080;42.264;24.536;2023-06-24T02:21:29;99265.66;;;19.99;100.00
39793;BME280;26080;42.264;24.536;2023-06-24T02:23:55;99270.69;;;19.92;100.00
39793;BME280;26080;42.264;24.536;2023-06-24T02:26:22;99291.88;;;20.03;100.00
39793;BME280;26080;42.264;24.536;2023-06-24T02:28:49;99281.63;;;19.99;100.00
39793;BME280;26080;42.264;24.536;2023-06-24T02:31:16;99289.88;;;19.96;100.00
39793;BME280;26080;42.264;24.536;2023-06-24T02:33:42;99294.97;;;20.08;100.00
39793;BME280;26080;42.264;24.536;2023-06-24T02:36:07;99290.75;;;20.06;100.00
39793;BME280;26080;42.264;24.536;2023-06-24T02:38:33;99276.84;;;19.93;100.00
39793;BME280;26080;42.264;24.536;2023-06-24T02:40:58;99294.25;;;20.06;100.00
39793;BME280;26080;42.264;24.536;2023-06-24T02:43:25;99295.81;;;20.09;100.00
39793;BME280;26080;42.264;24.536;2023-06-24T02:45:51;99295.81;;;20.09;100.00
39793;BME280;26080;42.264;24.536;2023-06-24T02:48:19;99293.19;;;20.19;100.00
39793;BME280;26080;42.264;24.536;2023-06-24T02:50:46;99295.59;;;20.22;100.00
39793;BME280;26080;42.264;24.536;2023-06-24T02:53:12;99291.38;;;20.19;100.00
39793;BME280;26080;42.264;24.536;2023-06-24T02:55:40;99293.34;;;20.17;100.00
39793;BME280;26080;42.264;24.536;2023-06-24T02:58:05;99300.84;;;20.12;100.00
39793;BME280;26080;42.264;24.536;2023-06-24T03:00:34;99312.16;;;20.04;100.00
39793;BME280;26080;42.264;24.536;2023-06-24T03:03:01;99303.59;;;20.01;100.00
39793;BME280;26080;42.264;24.536;2023-06-24T03:05:28;99300.06;;;19.91;100.00
39793;BME280;26080;42.264;24.536;2023-06-24T03:07:54;99297.84;;;19.96;100.00
39793;BME280;26080;42.264;24.536;2023-06-24T03:10:23;99296.78;;;20.08;100.00
39793;BME280;26080;42.264;24.536;2023-06-24T03:12:49;99295.66;;;20.10;100.00
39793;BME280;26080;42.264;24.536;2023-06-24T03:15:14;99290.13;;;19.93;100.00
39793;BME280;26080;42.264;24.536;2023-06-24T03:17:40;99296.75;;;19.77;100.00
39793;BME280;26080;42.264;24.536;2023-06-24T03:20:06;99296.56;;;19.69;100.00
39793;BME280;26080;42.264;24.536;2023-06-24T03:22:32;99297.53;;;19.68;100.00
39793;BME280;26080;42.264;24.536;2023-06-24T03:24:58;99305.00;;;19.74;100.00
39793;BME280;26080;42.264;24.536;2023-06-24T03:27:24;99302.66;;;20.02;100.00
39793;BME280;26080;42.264;24.536;2023-06-24T03:29:50;99306.78;;;20.25;100.00
39793;BME280;26080;42.264;24.536;2023-06-24T03:32:15;99301.94;;;20.40;100.00
39793;BME280;26080;42.264;24.536;2023-06-24T03:34:41;99298.69;;;20.67;100.00
39793;BME280;26080;42.264;24.536;2023-06-24T03:37:06;99292.16;;;21.10;100.00
39793;BME280;26080;42.264;24.536;2023-06-24T03:39:32;99300.50;;;21.26;100.00
39793;BME280;26080;42.264;24.536;2023-06-24T03:41:57;99297.53;;;21.48;100.00
39793;BME280;26080;42.264;24.536;2023-06-24T03:44:23;99304.69;;;21.57;100.00
39793;BME280;26080;42.264;24.536;2023-06-24T03:46:48;99292.00;;;21.79;100.00
39793;BME280;26080;42.264;24.536;2023-06-24T03:49:14;99300.50;;;22.21;100.00
39793;BME280;26080;42.264;24.536;2023-06-24T03:51:39;99306.94;;;22.46;100.00
39793;BME280;26080;42.264;24.536;2023-06-24T03:54:05;99314.69;;;22.76;100.00
39793;BME280;26080;42.264;24.536;2023-06-24T03:56:30;99317.63;;;23.01;100.00
39793;BME280;26080;42.264;24.536;2023-06-24T03:58:55;99326.19;;;24.02;100.00
39793;BME280;26080;42.264;24.536;2023-06-24T04:01:21;99332.66;;;24.85;100.00
39793;BME280;26080;42.264;24.536;2023-06-24T04:03:46;99305.31;;;25.73;99.33
39793;BME280;26080;42.264;24.536;2023-06-24T04:06:12;99327.88;;;26.74;92.40
39793;BME280;26080;42.264;24.536;2023-06-24T04:08:37;99321.78;;;27.42;84.68
39793;BME280;26080;42.264;24.536;2023-06-24T04:11:05;99322.25;;;27.23;85.56
39793;BME280;26080;42.264;24.536;2023-06-24T04:13:32;99329.13;;;27.71;84.03
39793;BME280;26080;42.264;24.536;2023-06-24T04:15:58;99324.41;;;28.55;77.95
39793;BME280;26080;42.264;24.536;2023-06-24T04:18:23;99323.66;;;28.32;77.74
39793;BME280;26080;42.264;24.536;2023-06-24T04:20:49;99317.31;;;28.69;75.83
39793;BME280;26080;42.264;24.536;2023-06-24T04:23:14;99331.00;;;28.68;73.33
39793;BME280;26080;42.264;24.536;2023-06-24T04:25:41;99341.75;;;28.82;73.95
39793;BME280;26080;42.264;24.536;2023-06-24T04:28:07;99347.13;;;28.97;76.43
39793;BME280;26080;42.264;24.536;2023-06-24T04:30:33;99352.53;;;28.97;73.94
39793;BME280;26080;42.264;24.536;2023-06-24T04:33:01;99359.50;;;28.91;75.18
39793;BME280;26080;42.264;24.536;2023-06-24T04:35:26;99365.72;;;29.07;74.74
39793;BME280;26080;42.264;24.536;2023-06-24T04:37:52;99353.34;;;29.34;70.21
39793;BME280;26080;42.264;24.536;2023-06-24T04:40:18;99344.38;;;29.69;69.08
39793;BME280;26080;42.264;24.536;2023-06-24T04:42:45;99329.63;;;29.93;66.24
39793;BME280;26080;42.264;24.536;2023-06-24T04:45:10;99338.06;;;30.74;62.42
39793;BME280;26080;42.264;24.536;2023-06-24T04:47:36;99342.66;;;30.11;64.47
39793;BME280;26080;42.264;24.536;2023-06-24T04:50:02;99342.03;;;30.09;66.16
39793;BME280;26080;42.264;24.536;2023-06-24T04:52:28;99360.88;;;31.13;63.31
39793;BME280;26080;42.264;24.536;2023-06-24T04:54:54;99348.94;;;32.28;59.19
39793;BME280;26080;42.264;24.536;2023-06-24T04:57:24;99353.69;;;33.10;53.72
39793;BME280;26080;42.264;24.536;2023-06-24T04:59:49;99360.94;;;33.61;51.08
39793;BME280;26080;42.264;24.536;2023-06-24T05:02:15;99352.13;;;33.34;51.88
39793;BME280;26080;42.264;24.536;2023-06-24T05:04:40;99354.44;;;32.86;50.74
39793;BME280;26080;42.264;24.536;2023-06-24T05:07:06;99360.06;;;32.78;52.58
39793;BME280;26080;42.264;24.536;2023-06-24T05:09:31;99368.53;;;33.08;49.40
39793;BME280;26080;42.264;24.536;2023-06-24T05:11:57;99374.88;;;33.26;48.89
39793;BME280;26080;42.264;24.536;2023-06-24T05:14:23;99367.22;;;34.36;45.84
39793;BME280;26080;42.264;24.536;2023-06-24T05:16:48;99376.75;;;34.64;42.15
39793;BME280;26080;42.264;24.536;2023-06-24T05:19:14;99378.34;;;34.90;41.79
39793;BME280;26080;42.264;24.536;2023-06-24T05:21:41;99375.63;;;34.90;41.64
39793;BME280;26080;42.264;24.536;2023-06-24T05:24:07;99379.00;;;35.03;41.25
39793;BME280;26080;42.264;24.536;2023-06-24T05:26:32;99375.38;;;34.73;42.63
39793;BME280;26080;42.264;24.536;2023-06-24T05:28:58;99362.13;;;33.97;44.23
39793;BME280;26080;42.264;24.536;2023-06-24T05:31:23;99363.06;;;33.14;46.73
39793;BME280;26080;42.264;24.536;2023-06-24T05:33:49;99371.44;;;31.69;52.78
39793;BME280;26080;42.264;24.536;2023-06-24T05:36:14;99367.16;;;30.72;54.79
39793;BME280;26080;42.264;24.536;2023-06-24T05:38:40;99355.63;;;30.22;58.35
39793;BME280;26080;42.264;24.536;2023-06-24T05:41:05;99367.25;;;30.23;58.43
39793;BME280;26080;42.264;24.536;2023-06-24T05:43:31;99373.41;;;29.89;61.07
39793;BME280;26080;42.264;24.536;2023-06-24T05:45:56;99382.19;;;28.68;65.94
39793;BME280;26080;42.264;24.536;2023-06-24T05:48:22;99380.03;;;29.07;63.38
39793;BME280;26080;42.264;24.536;2023-06-24T05:50:48;99378.28;;;28.70;62.53
39793;BME280;26080;42.264;24.536;2023-06-24T05:53:13;99381.31;;;29.11;62.90
39793;BME280;26080;42.264;24.536;2023-06-24T05:55:38;99370.47;;;28.31;65.08
39793;BME280;26080;42.264;24.536;2023-06-24T05:58:04;99375.78;;;28.01;67.85
39793;BME280;26080;42.264;24.536;2023-06-24T06:00:29;99375.06;;;27.62;71.51
39793;BME280;26080;42.264;24.536;2023-06-24T06:02:55;99380.22;;;27.94;75.31
39793;BME280;26080;42.264;24.536;2023-06-24T06:05:20;99370.03;;;28.04;64.43
39793;BME280;26080;42.264;24.536;2023-06-24T06:07:46;99379.50;;;28.00;64.83
39793;BME280;26080;42.264;24.536;2023-06-24T06:10:11;99365.25;;;27.92;65.08
39793;BME280;26080;42.264;24.536;2023-06-24T06:12:37;99365.72;;;27.58;74.16
39793;BME280;26080;42.264;24.536;2023-06-24T06:15:03;99339.28;;;27.38;71.21
39793;BME280;26080;42.264;24.536;2023-06-24T06:17:29;99360.06;;;27.22;75.26
39793;BME280;26080;42.264;24.536;2023-06-24T06:19:54;99364.63;;;27.13;79.70
39793;BME280;26080;42.264;24.536;2023-06-24T06:22:20;99354.97;;;27.27;75.92
39793;BME280;26080;42.264;24.536;2023-06-24T06:24:45;99352.25;;;27.58;71.91
39793;BME280;26080;42.264;24.536;2023-06-24T06:27:12;99350.78;;;27.24;75.06
39793;BME280;26080;42.264;24.536;2023-06-24T06:29:38;99361.44;;;27.18;79.11
39793;BME280;26080;42.264;24.536;2023-06-24T06:32:04;99352.38;;;27.41;74.01
39793;BME280;26080;42.264;24.536;2023-06-24T06:34:29;99354.28;;;27.33;71.25
39793;BME280;26080;42.264;24.536;2023-06-24T06:36:55;99351.78;;;27.31;72.33
39793;BME280;26080;42.264;24.536;2023-06-24T06:39:20;99346.03;;;27.57;73.78
39793;BME280;26080;42.264;24.536;2023-06-24T06:41:46;99341.25;;;27.67;69.42
39793;BME280;26080;42.264;24.536;2023-06-24T06:44:11;99341.97;;;27.61;71.80
39793;BME280;26080;42.264;24.536;2023-06-24T06:46:36;99352.84;;;27.68;70.71
39793;BME280;26080;42.264;24.536;2023-06-24T06:49:02;99351.31;;;27.73;67.02
39793;BME280;26080;42.264;24.536;2023-06-24T06:51:27;99336.75;;;27.60;67.22
39793;BME280;26080;42.264;24.536;2023-06-24T06:53:53;99343.28;;;27.42;75.60
39793;BME280;26080;42.264;24.536;2023-06-24T06:56:21;99341.72;;;27.48;69.18
39793;BME280;26080;42.264;24.536;2023-06-24T06:58:47;99340.09;;;27.39;70.28
39793;BME280;26080;42.264;24.536;2023-06-24T07:01:12;99346.63;;;27.44;73.33
39793;BME280;26080;42.264;24.536;2023-06-24T07:03:39;99329.06;;;27.34;73.34
39793;BME280;26080;42.264;24.536;2023-06-24T07:06:04;99340.72;;;27.49;73.18
39793;BME280;26080;42.264;24.536;2023-06-24T07:08:30;99341.78;;;27.40;77.36
39793;BME280;26080;42.264;24.536;2023-06-24T07:10:56;99331.44;;;27.52;73.99
39793;BME280;26080;42.264;24.536;2023-06-24T07:13:21;99326.91;;;27.29;68.43
39793;BME280;26080;42.264;24.536;2023-06-24T07:15:47;99326.84;;;27.37;67.78
39793;BME280;26080;42.264;24.536;2023-06-24T07:18:12;99328.03;;;27.58;68.28
39793;BME280;26080;42.264;24.536;2023-06-24T07:20:37;99323.69;;;27.57;62.46
39793;BME280;26080;42.264;24.536;2023-06-24T07:23:03;99322.34;;;27.53;62.73
39793;BME280;26080;42.264;24.536;2023-06-24T07:25:30;99326.09;;;27.29;64.11
39793;BME280;26080;42.264;24.536;2023-06-24T07:27:55;99330.38;;;27.38;63.93
39793;BME280;26080;42.264;24.536;2023-06-24T07:30:21;99327.41;;;27.33;62.51
39793;BME280;26080;42.264;24.536;2023-06-24T07:32:46;99326.56;;;27.32;64.79
39793;BME280;26080;42.264;24.536;2023-06-24T07:35:11;99330.13;;;27.48;70.17
39793;BME280;26080;42.264;24.536;2023-06-24T07:37:38;99332.00;;;27.70;67.62
39793;BME280;26080;42.264;24.536;2023-06-24T07:40:05;99332.22;;;27.83;68.87
39793;BME280;26080;42.264;24.536;2023-06-24T07:42:31;99317.84;;;27.91;67.77
39793;BME280;26080;42.264;24.536;2023-06-24T07:44:56;99317.59;;;28.00;61.14
39793;BME280;26080;42.264;24.536;2023-06-24T07:47:22;99320.47;;;28.14;67.53
39793;BME280;26080;42.264;24.536;2023-06-24T07:49:47;99315.66;;;28.24;64.24
39793;BME280;26080;42.264;24.536;2023-06-24T07:52:13;99316.22;;;28.34;64.56
39793;BME280;26080;42.264;24.536;2023-06-24T07:54:39;99310.75;;;28.42;58.79
39793;BME280;26080;42.264;24.536;2023-06-24T07:57:04;99312.34;;;28.51;64.12
39793;BME280;26080;42.264;24.536;2023-06-24T07:59:29;99313.34;;;28.50;62.35
39793;BME280;26080;42.264;24.536;2023-06-24T08:01:55;99311.47;;;28.51;66.02
39793;BME280;26080;42.264;24.536;2023-06-24T08:04:20;99311.19;;;28.60;61.93
39793;BME280;26080;42.264;24.536;2023-06-24T08:06:46;99316.88;;;28.66;62.79
39793;BME280;26080;42.264;24.536;2023-06-24T08:09:11;99320.94;;;28.61;61.43
39793;BME280;26080;42.264;24.536;2023-06-24T08:11:37;99313.88;;;28.60;60.24
39793;BME280;26080;42.264;24.536;2023-06-24T08:14:02;99319.09;;;28.62;59.16
39793;BME280;26080;42.264;24.536;2023-06-24T08:16:29;99319.19;;;28.69;60.32
39793;BME280;26080;42.264;24.536;2023-06-24T08:18:57;99313.88;;;28.75;58.19
39793;BME280;26080;42.264;24.536;2023-06-24T08:21:22;99316.75;;;28.74;65.65
39793;BME280;26080;42.264;24.536;2023-06-24T08:23:48;99318.03;;;28.78;59.46
39793;BME280;26080;42.264;24.536;2023-06-24T08:26:15;99318.78;;;28.86;63.31
39793;BME280;26080;42.264;24.536;2023-06-24T08:28:41;99301.88;;;28.78;57.86
39793;BME280;26080;42.264;24.536;2023-06-24T08:31:06;99315.38;;;28.48;60.18
39793;BME280;26080;42.264;24.536;2023-06-24T08:33:37;99316.03;;;28.36;60.97
39793;BME280;26080;42.264;24.536;2023-06-24T08:36:03;99314.19;;;28.36;60.26
39793;BME280;26080;42.264;24.536;2023-06-24T08:38:28;99310.75;;;28.42;63.11
39793;BME280;26080;42.264;24.536;2023-06-24T08:40:54;99312.69;;;28.63;63.09
39793;BME280;26080;42.264;24.536;2023-06-24T08:43:20;99315.72;;;28.75;65.07
39793;BME280;26080;42.264;24.536;2023-06-24T08:45:46;99315.19;;;28.94;62.86
39793;BME280;26080;42.264;24.536;2023-06-24T08:48:13;99315.81;;;28.96;61.00
39793;BME280;26080;42.264;24.536;2023-06-24T08:50:44;99309.66;;;29.02;63.73
39793;BME280;26080;42.264;24.536;2023-06-24T08:53:12;99321.03;;;29.19;66.62
39793;BME280;26080;42.264;24.536;2023-06-24T08:55:44;99311.41;;;29.31;62.62
39793;BME280;26080;42.264;24.536;2023-06-24T08:58:10;99310.06;;;29.42;61.96
39793;BME280;26080;42.264;24.536;2023-06-24T09:00:36;99292.44;;;29.46;64.51
39793;BME280;26080;42.264;24.536;2023-06-24T09:03:01;99305.00;;;29.75;62.81
39793;BME280;26080;42.264;24.536;2023-06-24T09:05:27;99296.38;;;29.93;59.92
39793;BME280;26080;42.264;24.536;2023-06-24T09:07:53;99279.78;;;29.96;58.78
39793;BME280;26080;42.264;24.536;2023-06-24T09:10:32;99300.34;;;30.18;59.95
39793;BME280;26080;42.264;24.536;2023-06-24T09:13:02;99286.00;;;30.24;59.65
39793;BME280;26080;42.264;24.536;2023-06-24T09:15:37;99285.66;;;30.34;58.62
39793;BME280;26080;42.264;24.536;2023-06-24T09:18:04;99284.22;;;30.38;57.60
39793;BME280;26080;42.264;24.536;2023-06-24T09:20:31;99278.16;;;30.29;61.21
39793;BME280;26080;42.264;24.536;2023-06-24T09:23:05;99291.00;;;30.27;56.95
39793;BME280;26080;42.264;24.536;2023-06-24T09:25:34;99269.59;;;30.26;57.43
39793;BME280;26080;42.264;24.536;2023-06-24T09:28:03;99278.19;;;30.36;59.36
39793;BME280;26080;42.264;24.536;2023-06-24T09:30:28;99282.19;;;30.47;59.75
39793;BME280;26080;42.264;24.536;2023-06-24T09:32:55;99264.75;;;30.56;63.10
39793;BME280;26080;42.264;24.536;2023-06-24T09:35:26;99253.16;;;30.62;54.35
39793;BME280;26080;42.264;24.536;2023-06-24T09:37:55;99248.16;;;30.59;53.71
39793;BME280;26080;42.264;24.536;2023-06-24T09:40:22;99256.22;;;30.46;53.56
39793;BME280;26080;42.264;24.536;2023-06-24T09:45:25;99229.34;;;30.31;57.40
39793;BME280;26080;42.264;24.536;2023-06-24T09:47:52;99233.28;;;30.35;59.94
39793;BME280;26080;42.264;24.536;2023-06-24T09:50:18;99243.53;;;30.53;57.50
39793;BME280;26080;42.264;24.536;2023-06-24T09:52:44;99235.69;;;30.58;54.72
39793;BME280;26080;42.264;24.536;2023-06-24T09:55:13;99233.59;;;30.60;58.37
39793;BME280;26080;42.264;24.536;2023-06-24T09:57:50;99223.25;;;30.63;60.65
39793;BME280;26080;42.264;24.536;2023-06-24T10:00:19;99220.75;;;30.69;54.56
39793;BME280;26080;42.264;24.536;2023-06-24T10:02:45;99221.00;;;30.74;58.34
39793;BME280;26080;42.264;24.536;2023-06-24T10:05:13;99212.47;;;30.77;56.53
39793;BME280;26080;42.264;24.536;2023-06-24T10:07:39;99230.16;;;30.92;52.02
39793;BME280;26080;42.264;24.536;2023-06-24T10:10:06;99219.56;;;30.84;53.54
39793;BME280;26080;42.264;24.536;2023-06-24T10:12:32;99234.13;;;30.96;53.14
39793;BME280;26080;42.264;24.536;2023-06-24T10:14:59;99221.66;;;31.09;52.42
39793;BME280;26080;42.264;24.536;2023-06-24T10:17:25;99223.31;;;31.10;55.51
39793;BME280;26080;42.264;24.536;2023-06-24T10:19:52;99219.81;;;31.16;55.16
39793;BME280;26080;42.264;24.536;2023-06-24T10:22:24;99218.78;;;31.17;54.30
39793;BME280;26080;42.264;24.536;2023-06-24T10:24:51;99222.53;;;31.22;56.98
39793;BME280;26080;42.264;24.536;2023-06-24T10:27:19;99207.56;;;31.27;51.70
39793;BME280;26080;42.264;24.536;2023-06-24T10:29:54;99202.56;;;31.30;57.90
39793;BME280;26080;42.264;24.536;2023-06-24T10:32:23;99199.22;;;31.35;49.86
39793;BME280;26080;42.264;24.536;2023-06-24T10:34:56;99197.38;;;31.42;51.93
39793;BME280;26080;42.264;24.536;2023-06-24T10:37:24;99199.00;;;31.49;54.59
39793;BME280;26080;42.264;24.536;2023-06-24T10:39:51;99191.72;;;31.57;53.07
39793;BME280;26080;42.264;24.536;2023-06-24T10:44:52;99163.00;;;31.56;57.52
39793;BME280;26080;42.264;24.536;2023-06-24T10:47:18;99191.91;;;31.62;53.04
39793;BME280;26080;42.264;24.536;2023-06-24T10:49:45;99170.72;;;31.45;49.96
39793;BME280;26080;42.264;24.536;2023-06-24T10:52:12;99168.84;;;31.46;53.85
39793;BME280;26080;42.264;24.536;2023-06-24T10:54:38;99168.81;;;31.59;56.46
39793;BME280;26080;42.264;24.536;2023-06-24T10:57:05;99171.09;;;31.69;59.65
39793;BME280;26080;42.264;24.536;2023-06-24T10:59:46;99161.31;;;31.81;55.69
39793;BME280;26080;42.264;24.536;2023-06-24T11:05:51;99125.41;;;31.92;54.06
39793;BME280;26080;42.264;24.536;2023-06-24T11:08:16;99128.56;;;31.96;52.50
39793;BME280;26080;42.264;24.536;2023-06-24T11:10:46;99129.13;;;32.04;53.23
39793;BME280;26080;42.264;24.536;2023-06-24T11:13:12;99118.06;;;32.12;55.68
39793;BME280;26080;42.264;24.536;2023-06-24T11:15:39;99109.09;;;32.12;50.20
39793;BME280;26080;42.264;24.536;2023-06-24T11:18:08;99115.63;;;31.98;49.76
39793;BME280;26080;42.264;24.536;2023-06-24T11:20:36;99116.69;;;31.97;50.95
39793;BME280;26080;42.264;24.536;2023-06-24T11:23:01;99116.69;;;31.90;50.02
39793;BME280;26080;42.264;24.536;2023-06-24T11:25:26;99116.94;;;31.82;51.18
39793;BME280;26080;42.264;24.536;2023-06-24T11:27:52;99119.88;;;31.80;50.54
39793;BME280;26080;42.264;24.536;2023-06-24T11:30:21;99112.16;;;31.84;50.22
39793;BME280;26080;42.264;24.536;2023-06-24T11:32:47;99091.13;;;31.73;51.45
39793;BME280;26080;42.264;24.536;2023-06-24T11:35:15;99088.22;;;31.61;51.97
39793;BME280;26080;42.264;24.536;2023-06-24T11:37:42;99098.44;;;31.59;51.94
39793;BME280;26080;42.264;24.536;2023-06-24T11:40:10;99089.66;;;31.70;51.59
39793;BME280;26080;42.264;24.536;2023-06-24T11:42:44;99085.91;;;31.65;51.78
39793;BME280;26080;42.264;24.536;2023-06-24T11:45:11;99074.75;;;31.48;51.91
39793;BME280;26080;42.264;24.536;2023-06-24T11:47:38;99079.66;;;31.71;52.59
39793;BME280;26080;42.264;24.536;2023-06-24T11:50:07;99075.06;;;31.78;51.11
39793;BME280;26080;42.264;24.536;2023-06-24T11:52:40;99077.94;;;31.96;54.38
39793;BME280;26080;42.264;24.536;2023-06-24T11:58:00;99067.78;;;32.23;53.45
39793;BME280;26080;42.264;24.536;2023-06-24T12:00:29;99062.53;;;32.35;51.40
39793;BME280;26080;42.264;24.536;2023-06-24T12:09:47;99061.13;;;32.19;50.02
39793;BME280;26080;42.264;24.536;2023-06-24T12:12:12;99060.13;;;32.13;50.36
39793;BME280;26080;42.264;24.536;2023-06-24T12:14:37;99056.59;;;32.13;49.84
39793;BME280;26080;42.264;24.536;2023-06-24T12:17:03;99051.38;;;32.11;51.41
39793;BME280;26080;42.264;24.536;2023-06-24T12:19:29;99039.06;;;32.16;51.14
39793;BME280;26080;42.264;24.536;2023-06-24T12:21:55;99033.66;;;32.16;55.75
39793;BME280;26080;42.264;24.536;2023-06-24T12:24:21;99035.50;;;32.22;56.18
39793;BME280;26080;42.264;24.536;2023-06-24T12:26:47;99024.47;;;32.17;55.68
39793;BME280;26080;42.264;24.536;2023-06-24T12:29:12;99015.34;;;32.11;53.53
39793;BME280;26080;42.264;24.536;2023-06-24T12:31:37;99017.09;;;31.99;55.19
39793;BME280;26080;42.264;24.536;2023-06-24T12:34:03;99011.53;;;31.87;56.04
39793;BME280;26080;42.264;24.536;2023-06-24T12:36:30;99004.88;;;31.83;53.47
39793;BME280;26080;42.264;24.536;2023-06-24T12:38:56;98999.19;;;31.91;54.55
39793;BME280;26080;42.264;24.536;2023-06-24T12:41:21;99004.16;;;32.01;53.47
39793;BME280;26080;42.264;24.536;2023-06-24T12:43:47;98999.03;;;32.18;52.50
39793;BME280;26080;42.264;24.536;2023-06-24T12:46:12;99001.22;;;32.34;53.68
39793;BME280;26080;42.264;24.536;2023-06-24T12:48:37;98988.41;;;32.48;53.27
39793;BME280;26080;42.264;24.536;2023-06-24T12:51:03;98994.94;;;32.65;52.39
39793;BME280;26080;42.264;24.536;2023-06-24T12:53:28;98991.47;;;32.83;48.92
39793;BME280;26080;42.264;24.536;2023-06-24T12:55:54;98987.09;;;32.82;49.71
39793;BME280;26080;42.264;24.536;2023-06-24T12:58:22;98978.13;;;32.81;49.28
39793;BME280;26080;42.264;24.536;2023-06-24T13:00:48;98983.47;;;32.88;49.60
39793;BME280;26080;42.264;24.536;2023-06-24T13:03:13;98983.16;;;32.78;49.15
39793;BME280;26080;42.264;24.536;2023-06-24T13:05:39;98982.75;;;32.74;49.57
39793;BME280;26080;42.264;24.536;2023-06-24T13:08:20;98980.84;;;32.56;50.59
39793;BME280;26080;42.264;24.536;2023-06-24T13:10:45;98977.97;;;32.51;53.21
39793;BME280;26080;42.264;24.536;2023-06-24T13:13:11;98978.41;;;32.48;50.96